Griffin, North Dakota
Current Conditions -  °F | °C
As of 8:53 PM on Saturday 25 Oct 2014 (Local Time) from KHEI Reporting Station
Clear Clear  
Wind Chill: 51°   Ceiling: Unl
Heat Index: 51°   Visibility: 10mi
Dew Point: 30°   Wind: 20mph
Humidity: 44%   Direction: 120°ESE
Pressure: 29.89"   Gusts: 25mph
Location:  46.1126°N, 103.431°W
Report Text: KHEI 260253Z AUTO 12017G22KT 10SM CLR 11/M01 A2989 RMK AO2 SLP131 T01061011 58022
Loading
Personal Weather Stations






























Interactive Weather Map
Tropical Storm Tracking
New forecast layout! Learn more

10-Day Weather Forecast

Advertisements
Track Severe Weather on mobile